Time;durP1;ratioP1;P1;durP2;ratioP2;P2;SDS_P1;SDS_P2;PMS_P1;PMS_P2;Temp;Humidity;BMP_temperature;BMP_pressure;BME280_temperature;BME280_humidity;BME280_pressure;Samples;Min_cycle;Max_cycle;Signal;HPM_P1;HPM_P2
2021/08/29 00:01:56;;;;;;;2.57;1.80;;;;;;;16.69;63.18;97944.75;8414456;28;20230;-70
2021/08/29 00:05:59;;;;;;;2.57;1.50;;;;;;;16.68;63.11;97950.06;8415550;28;20233;-71
2021/08/29 00:10:02;;;;;;;4.40;1.60;;;;;;;16.71;62.85;97944.63;8415414;28;20458;-70
2021/08/29 00:14:05;;;;;;;3.10;1.60;;;;;;;16.60;63.15;97924.47;8416664;28;20207;-70
2021/08/29 00:18:09;;;;;;;2.37;1.60;;;;;;;16.67;62.81;97928.31;8421176;28;20494;-71
2021/08/29 00:22:12;;;;;;;3.00;1.73;;;;;;;16.56;63.27;97929.09;8421190;28;20536;-71
2021/08/29 00:26:15;;;;;;;1.73;1.53;;;;;;;16.61;63.10;97921.75;8421060;28;20227;-70
2021/08/29 00:30:18;;;;;;;1.90;1.60;;;;;;;16.57;63.15;97919.47;8420983;28;20206;-71
2021/08/29 00:34:22;;;;;;;1.93;1.37;;;;;;;16.58;63.04;97924.59;8420859;28;20222;-70
2021/08/29 00:38:25;;;;;;;1.97;1.40;;;;;;;16.55;63.24;97914.34;8420609;28;20211;-70
2021/08/29 00:42:28;;;;;;;1.97;1.60;;;;;;;16.58;63.09;97928.97;8420718;28;20234;-70
2021/08/29 00:46:32;;;;;;;2.83;1.60;;;;;;;16.53;62.84;97924.06;8420462;28;20226;-70
2021/08/29 00:50:36;;;;;;;1.70;1.60;;;;;;;16.53;63.35;97923.25;8420276;28;20218;-70
2021/08/29 00:54:39;;;;;;;3.33;1.30;;;;;;;16.47;63.55;97924.50;8420525;28;20498;-70
2021/08/29 00:58:43;;;;;;;2.03;1.50;;;;;;;16.53;63.09;97925.84;8420048;28;20199;-70
2021/08/29 01:02:46;;;;;;;1.70;1.50;;;;;;;16.49;63.22;97919.16;8420238;28;20514;-70
2021/08/29 01:06:55;;;;;;;2.60;1.60;;;;;;;16.52;63.36;97916.31;8420077;28;20227;-70
2021/08/29 01:10:59;;;;;;;2.77;1.50;;;;;;;16.62;63.45;97914.75;8419934;28;20206;-70
2021/08/29 01:15:03;;;;;;;3.13;1.47;;;;;;;16.58;63.17;97913.28;8420130;28;20202;-70
2021/08/29 01:19:10;;;;;;;2.73;1.70;;;;;;;16.57;63.24;97916.84;8419459;28;20233;-70
2021/08/29 01:23:14;;;;;;;1.87;1.77;;;;;;;16.57;63.19;97917.69;8419348;28;20199;-70
2021/08/29 01:27:20;;;;;;;3.73;1.87;;;;;;;16.55;63.78;97916.13;8418624;28;20233;-70
2021/08/29 01:31:26;;;;;;;2.33;1.80;;;;;;;16.58;63.60;97921.97;8419283;28;20202;-71
2021/08/29 01:35:29;;;;;;;2.47;2.10;;;;;;;16.57;63.73;97919.47;8418836;28;20214;-70
2021/08/29 01:39:33;;;;;;;3.63;2.03;;;;;;;16.53;63.38;97923.25;8418814;28;20213;-70
2021/08/29 01:43:35;;;;;;;1.93;1.70;;;;;;;16.53;63.75;97921.44;8418776;28;20211;-70
2021/08/29 01:47:40;;;;;;;3.53;2.23;;;;;;;16.58;64.12;97921.97;8418606;28;20411;-70
2021/08/29 01:51:43;;;;;;;3.70;2.00;;;;;;;16.55;63.99;97921.34;8418344;28;20241;-70
2021/08/29 01:55:49;;;;;;;1.80;1.70;;;;;;;16.55;64.13;97924.78;8418082;28;20204;-70
2021/08/29 01:59:52;;;;;;;4.93;2.17;;;;;;;16.55;63.90;97916.94;8418344;28;20199;-70
2021/08/29 02:03:56;;;;;;;3.73;1.67;;;;;;;16.57;63.81;97912.44;8417777;28;20230;-70
2021/08/29 02:08:00;;;;;;;2.87;1.93;;;;;;;16.53;63.95;97913.59;8417894;28;20199;-70
2021/08/29 02:12:03;;;;;;;2.27;2.00;;;;;;;16.57;64.10;97914.22;8417707;28;20203;-70
2021/08/29 02:16:10;;;;;;;4.83;2.20;;;;;;;16.56;63.91;97910.78;8417619;28;20203;-70
2021/08/29 02:20:17;;;;;;;2.70;2.20;;;;;;;16.49;64.05;97901.69;8417585;28;20199;-70
2021/08/29 02:24:22;;;;;;;3.63;2.30;;;;;;;16.52;64.08;97904.09;8417335;28;20224;-70
2021/08/29 02:28:25;;;;;;;3.27;2.00;;;;;;;16.53;64.06;97897.09;8417209;28;20199;-70
2021/08/29 02:32:29;;;;;;;2.23;1.90;;;;;;;16.45;64.37;97897.63;8417140;28;20206;-70
2021/08/29 02:36:33;;;;;;;2.60;2.30;;;;;;;16.51;64.72;97899.00;8417006;28;20207;-70
2021/08/29 02:40:38;;;;;;;3.30;2.17;;;;;;;16.54;64.60;97894.34;8417071;28;20213;-70
2021/08/29 02:44:41;;;;;;;7.17;2.53;;;;;;;16.47;65.48;97897.50;8416791;28;20234;-70
2021/08/29 02:48:45;;;;;;;3.40;2.40;;;;;;;16.52;65.19;97898.84;8416621;28;20545;-71
2021/08/29 02:52:49;;;;;;;3.60;2.23;;;;;;;16.46;65.58;97891.44;8416742;28;20206;-71
2021/08/29 02:56:56;;;;;;;2.37;1.93;;;;;;;16.50;65.79;97890.28;8416340;28;20221;-70
2021/08/29 03:00:59;;;;;;;2.57;2.17;;;;;;;16.47;66.08;97890.53;8416625;28;20199;-70
2021/08/29 03:05:02;;;;;;;3.67;2.10;;;;;;;16.50;66.19;97886.84;8416105;28;20262;-70
2021/08/29 03:09:07;;;;;;;3.67;2.37;;;;;;;16.52;65.90;97893.63;8416042;28;20202;-70
2021/08/29 03:13:10;;;;;;;3.40;2.40;;;;;;;16.49;66.37;97891.25;8416214;28;20198;-70
2021/08/29 03:17:13;;;;;;;4.73;3.07;;;;;;;16.46;66.12;97882.78;8416160;28;20490;-70
2021/08/29 03:21:16;;;;;;;2.67;2.40;;;;;;;16.50;66.71;97887.66;8416012;28;20219;-70
2021/08/29 03:25:21;;;;;;;3.00;2.70;;;;;;;16.52;66.28;97880.56;8416013;28;20272;-70
2021/08/29 03:29:24;;;;;;;6.70;3.00;;;;;;;16.50;66.34;97874.59;8416010;28;20214;-70
2021/08/29 03:33:27;;;;;;;6.17;3.00;;;;;;;16.54;67.09;97870.00;8415717;28;20206;-70
2021/08/29 03:37:31;;;;;;;3.60;3.00;;;;;;;16.46;66.75;97870.53;8415873;28;20395;-70
2021/08/29 03:41:36;;;;;;;3.07;2.77;;;;;;;16.54;66.61;97868.22;8415857;28;20210;-70
2021/08/29 03:45:39;;;;;;;5.17;3.20;;;;;;;16.53;66.59;97871.78;8415890;28;20233;-70
2021/08/29 03:49:42;;;;;;;3.43;3.13;;;;;;;16.51;66.63;97863.22;8417913;28;20219;-70
2021/08/29 03:53:45;;;;;;;3.63;3.23;;;;;;;16.48;67.06;97867.81;8422104;28;20199;-70
2021/08/29 03:57:50;;;;;;;3.73;3.20;;;;;;;16.39;67.11;97867.53;8422056;28;20210;-70
2021/08/29 04:01:54;;;;;;;3.67;3.37;;;;;;;16.43;67.39;97865.53;8421977;28;20206;-70
2021/08/29 04:05:58;;;;;;;3.50;3.10;;;;;;;16.45;67.15;97857.56;8421816;28;20417;-70
2021/08/29 04:10:02;;;;;;;5.20;3.53;;;;;;;16.49;66.91;97859.06;8421682;28;20199;-70
2021/08/29 04:14:07;;;;;;;2.90;2.70;;;;;;;16.53;67.07;97865.72;8421432;28;20206;-70
2021/08/29 04:18:10;;;;;;;3.47;3.17;;;;;;;16.53;66.96;97865.72;8421400;28;20214;-68
2021/08/29 04:22:14;;;;;;;6.57;3.43;;;;;;;16.45;67.54;97862.78;8421200;28;20198;-68
2021/08/29 04:26:17;;;;;;;3.70;3.27;;;;;;;16.52;67.25;97856.19;8421196;28;20227;-68
2021/08/29 04:30:22;;;;;;;3.83;3.43;;;;;;;16.56;66.93;97860.25;8420955;28;20199;-68
2021/08/29 04:34:25;;;;;;;4.00;3.57;;;;;;;16.52;66.99;97859.66;8420769;28;20206;-68
2021/08/29 04:38:28;;;;;;;4.23;3.37;;;;;;;16.55;67.11;97864.66;8420687;28;20202;-68
2021/08/29 04:42:31;;;;;;;5.27;3.10;;;;;;;16.58;67.70;97863.59;8420799;28;20237;-68
2021/08/29 04:46:35;;;;;;;3.23;2.97;;;;;;;16.60;67.41;97864.34;8420396;28;20234;-68
2021/08/29 04:50:38;;;;;;;3.97;3.53;;;;;;;16.53;67.33;97855.28;8420333;28;20222;-68
2021/08/29 04:54:40;;;;;;;3.47;3.17;;;;;;;16.55;67.30;97856.81;8420345;28;20199;-68
2021/08/29 04:58:43;;;;;;;3.73;3.40;;;;;;;16.53;67.48;97858.72;8419955;28;20203;-68
2021/08/29 05:02:47;;;;;;;4.80;3.63;;;;;;;16.55;67.54;97864.66;8418722;28;20407;-68
2021/08/29 05:06:50;;;;;;;4.10;3.20;;;;;;;16.50;68.06;97853.69;8419756;28;20222;-68
2021/08/29 05:10:53;;;;;;;3.30;2.97;;;;;;;16.58;67.68;97867.09;8419962;28;20199;-68
2021/08/29 05:14:56;;;;;;;3.73;3.23;;;;;;;16.65;67.59;97864.03;8419857;28;20199;-67
2021/08/29 05:19:00;;;;;;;3.33;3.03;;;;;;;16.62;67.50;97862.47;8419596;28;20211;-68
2021/08/29 05:23:02;;;;;;;4.30;2.47;;;;;;;16.68;67.99;97854.19;8419399;28;20206;-67
2021/08/29 05:27:05;;;;;;;2.70;2.50;;;;;;;16.72;67.66;97858.25;8418942;28;20218;-68
2021/08/29 05:31:08;;;;;;;3.00;2.80;;;;;;;16.79;67.81;97858.63;8418269;28;20339;-68
2021/08/29 05:35:13;;;;;;;3.20;2.90;;;;;;;16.84;67.67;97863.59;8418126;28;20199;-68
2021/08/29 05:39:15;;;;;;;3.17;2.60;;;;;;;16.92;67.25;97864.69;8418075;28;20191;-68
2021/08/29 05:43:18;;;;;;;2.77;2.57;;;;;;;16.94;67.63;97864.59;8418055;28;20199;-68
2021/08/29 05:47:21;;;;;;;2.73;2.53;;;;;;;16.97;67.95;97859.13;8418563;28;20526;-68
2021/08/29 05:51:25;;;;;;;2.63;2.17;;;;;;;17.04;67.64;97865.59;8418383;28;20223;-68
2021/08/29 05:55:28;;;;;;;3.53;2.47;;;;;;;17.00;68.38;97869.38;8418239;28;20490;-70
2021/08/29 05:59:31;;;;;;;2.17;2.07;;;;;;;16.91;67.83;97881.34;8418139;28;20199;-69
2021/08/29 06:03:37;;;;;;;1.97;1.87;;;;;;;16.96;67.91;97878.38;8417781;28;20227;-68
2021/08/29 06:07:42;;;;;;;1.67;1.57;;;;;;;16.99;67.90;97865.09;8417307;28;20287;-69
2021/08/29 06:11:45;;;;;;;1.80;1.57;;;;;;;17.25;66.77;97863.22;8416458;28;20195;-69
2021/08/29 06:15:48;;;;;;;1.47;1.30;;;;;;;17.35;66.40;97864.19;8416708;28;20195;-69
2021/08/29 06:19:50;;;;;;;1.17;1.07;;;;;;;17.45;65.63;97860.91;8416446;28;20513;-69
2021/08/29 06:23:55;;;;;;;0.93;0.93;;;;;;;17.50;65.84;97867.47;8416572;28;20203;-69
2021/08/29 06:27:58;;;;;;;0.90;0.90;;;;;;;17.15;65.93;97862.19;8416294;28;20231;-69
2021/08/29 06:32:02;;;;;;;3.00;1.13;;;;;;;17.14;66.32;97861.38;8416244;28;20198;-69
2021/08/29 06:36:05;;;;;;;1.13;1.00;;;;;;;17.04;66.14;97857.75;8416071;28;20420;-69
2021/08/29 06:40:11;;;;;;;0.97;0.90;;;;;;;17.18;66.02;97860.19;8415929;28;20191;-69
2021/08/29 06:44:14;;;;;;;1.47;0.90;;;;;;;17.16;66.27;97867.31;8415992;28;20191;-69
2021/08/29 06:48:16;;;;;;;0.80;0.80;;;;;;;17.27;65.72;97870.91;8415746;28;20533;-69
2021/08/29 06:52:19;;;;;;;0.90;0.90;;;;;;;17.39;65.77;97863.00;8416628;28;20195;-69
2021/08/29 06:56:23;;;;;;;1.00;0.90;;;;;;;17.50;65.10;97866.63;8416255;28;20382;-69
2021/08/29 07:00:27;;;;;;;1.60;0.80;;;;;;;17.58;64.58;97849.38;8416544;28;20206;-69
2021/08/29 07:04:30;;;;;;;1.50;1.00;;;;;;;17.70;64.70;97863.34;8416096;28;20299;-69
2021/08/29 07:08:32;;;;;;;0.90;0.87;;;;;;;17.80;64.87;97853.03;8416363;28;20230;-69
2021/08/29 07:12:37;;;;;;;1.00;0.90;;;;;;;17.92;65.01;97859.16;8416193;28;20199;-68
2021/08/29 07:16:39;;;;;;;0.90;0.80;;;;;;;17.97;64.72;97859.63;8416145;28;20207;-69
2021/08/29 07:20:42;;;;;;;0.70;0.70;;;;;;;17.94;63.86;97855.47;8416301;28;20203;-69
2021/08/29 07:24:45;;;;;;;2.23;1.00;;;;;;;17.93;63.80;97852.94;8411948;28;20195;-69
2021/08/29 07:28:49;;;;;;;0.90;0.90;;;;;;;17.97;63.20;97855.22;8414634;28;20518;-69
2021/08/29 07:32:52;;;;;;;1.60;1.07;;;;;;;17.91;64.04;97857.47;8414883;28;20195;-69
2021/08/29 07:36:56;;;;;;;3.03;1.00;;;;;;;18.02;64.34;97851.41;8414867;28;20195;-70
2021/08/29 07:40:59;;;;;;;0.83;0.80;;;;;;;18.00;63.96;97855.94;8414973;28;20364;-69
2021/08/29 07:45:03;;;;;;;0.70;0.70;;;;;;;17.92;64.59;97862.59;8414786;28;20206;-70
2021/08/29 07:49:06;;;;;;;1.70;0.60;;;;;;;18.07;63.55;97865.00;8412481;28;20297;-70
2021/08/29 07:53:09;;;;;;;0.80;0.80;;;;;;;18.03;63.00;97866.19;8414584;28;20469;-69
2021/08/29 07:57:12;;;;;;;1.43;0.70;;;;;;;18.07;62.76;97863.22;8411820;28;20206;-69
2021/08/29 08:01:16;;;;;;;0.70;0.70;;;;;;;18.23;62.33;97860.25;8413807;28;20202;-70
2021/08/29 08:05:19;;;;;;;1.37;0.67;;;;;;;18.30;62.11;97863.25;8423799;28;20218;-70
2021/08/29 08:09:22;;;;;;;0.93;0.50;;;;;;;18.30;62.09;97861.44;8418998;28;20227;-70
2021/08/29 08:13:25;;;;;;;0.67;0.67;;;;;;;18.35;61.41;97861.94;8415188;28;20199;-70
2021/08/29 08:17:29;;;;;;;0.60;0.60;;;;;;;18.33;61.01;97860.34;8415139;28;20203;-70
2021/08/29 08:21:32;;;;;;;0.87;0.60;;;;;;;18.30;61.21;97863.25;8415062;28;20210;-70
2021/08/29 08:25:35;;;;;;;0.60;0.60;;;;;;;18.36;60.76;97863.59;8423142;28;20218;-70
2021/08/29 08:29:38;;;;;;;0.60;0.60;;;;;;;18.44;61.48;97868.22;8431392;28;20239;-70
2021/08/29 08:33:51;;;;;;;4.47;0.70;;;;;;;18.34;60.51;97869.91;8430662;28;20487;-70
2021/08/29 08:37:57;;;;;;;0.60;0.60;;;;;;;18.55;59.72;97862.16;8425766;28;20309;-70
2021/08/29 08:42:00;;;;;;;0.50;0.50;;;;;;;18.74;59.61;97861.53;8420103;28;20498;-70
2021/08/29 08:46:03;;;;;;;0.97;0.57;;;;;;;19.08;58.95;97857.06;8422649;28;20192;-70
2021/08/29 08:50:10;;;;;;;0.80;0.70;;;;;;;19.20;58.81;97857.03;8422050;28;20226;-70
2021/08/29 08:54:14;;;;;;;0.90;0.70;;;;;;;19.21;58.35;97858.69;8420919;28;20371;-70
2021/08/29 08:58:18;;;;;;;0.80;0.70;;;;;;;19.01;58.84;97849.81;8434939;28;20206;-70
2021/08/29 09:02:23;;;;;;;0.60;0.60;;;;;;;19.06;59.04;97850.28;8435899;28;20529;-69
2021/08/29 09:06:27;;;;;;;4.00;0.80;;;;;;;19.21;58.96;97849.03;8432112;28;20230;-70
2021/08/29 09:10:30;;;;;;;0.40;0.40;;;;;;;19.20;59.09;97857.03;8433904;28;20508;-71
2021/08/29 09:14:45;;;;;;;0.83;0.60;;;;;;;19.17;58.21;97852.84;8431373;28;20445;-70
2021/08/29 09:18:49;;;;;;;3.27;0.80;;;;;;;18.93;61.10;97863.56;8444129;28;20356;-69
2021/08/29 09:22:54;;;;;;;0.50;0.50;;;;;;;18.74;61.25;97853.66;8442987;28;20211;-70
2021/08/29 09:27:01;;;;;;;0.80;0.50;;;;;;;18.70;61.84;97853.06;8432433;28;20215;-71
2021/08/29 09:31:04;;;;;;;1.53;1.10;;;;;;;18.63;61.52;97848.44;8430743;28;20207;-70
2021/08/29 09:35:10;;;;;;;0.80;0.73;;;;;;;18.81;60.80;97848.78;8415793;28;20191;-70
2021/08/29 09:39:15;;;;;;;0.50;0.50;;;;;;;18.96;60.09;97844.91;8418260;28;20494;-71
2021/08/29 09:43:18;;;;;;;0.57;0.57;;;;;;;19.08;58.48;97840.50;8415878;28;20199;-71
2021/08/29 09:47:21;;;;;;;0.50;0.50;;;;;;;19.17;59.02;97837.09;8417243;28;20525;-70
2021/08/29 09:51:24;;;;;;;0.77;0.50;;;;;;;19.21;58.32;97840.31;8417610;28;20218;-71
2021/08/29 09:55:30;;;;;;;0.83;0.83;;;;;;;19.00;58.56;97832.38;8417485;28;20191;-71
2021/08/29 09:59:41;;;;;;;1.27;0.60;;;;;;;19.12;59.10;97832.22;8417475;28;20196;-71
2021/08/29 10:03:45;;;;;;;660.30;503.70;;;;;;;19.79;60.51;97837.31;8415995;28;20227;-70
2021/08/29 10:07:57;;;;;;;570.37;455.80;;;;;;;20.72;61.55;97833.72;8414416;28;20517;-70
2021/08/29 10:12:02;;;;;;;67.43;49.07;;;;;;;21.71;54.43;97824.91;8414682;28;20376;-71
2021/08/29 10:16:07;;;;;;;75.77;53.17;;;;;;;21.98;55.53;97827.59;8417375;28;20310;-70
2021/08/29 10:20:11;;;;;;;57.13;43.13;;;;;;;21.99;53.10;97828.41;8417300;28;20310;-69
2021/08/29 10:24:14;;;;;;;15.73;10.43;;;;;;;21.80;52.36;97824.03;8416948;28;20192;-70
2021/08/29 10:28:21;;;;;;;11.40;7.33;;;;;;;21.87;52.80;97830.41;8417165;28;20228;-70
2021/08/29 10:32:27;;;;;;;3.70;2.27;;;;;;;21.50;51.54;97822.44;8417075;28;20206;-70
2021/08/29 10:36:30;;;;;;;7.40;2.77;;;;;;;21.31;51.21;97821.44;8417048;28;20519;-69
2021/08/29 10:40:32;;;;;;;1.37;1.00;;;;;;;21.24;51.56;97826.41;8416988;28;20370;-69
2021/08/29 10:44:37;;;;;;;2.80;0.83;;;;;;;21.42;52.44;97831.84;8416860;28;20214;-69
2021/08/29 10:48:41;;;;;;;2.10;0.80;;;;;;;20.92;52.69;97825.84;8416486;28;20253;-69
2021/08/29 10:52:44;;;;;;;1.83;1.03;;;;;;;20.69;53.27;97826.09;8432377;28;20190;-69
2021/08/29 10:56:47;;;;;;;4.43;2.43;;;;;;;20.87;52.85;97824.47;8432241;28;20224;-69
2021/08/29 11:00:52;;;;;;;1.60;1.10;;;;;;;21.26;52.28;97816.56;8431067;28;20208;-69
2021/08/29 11:04:55;;;;;;;0.60;0.40;;;;;;;21.12;52.41;97813.56;8426763;28;20480;-67
2021/08/29 11:09:43;;;;;;;2.30;0.50;;;;;;;20.66;51.00;97803.53;8430898;28;20541;-67
2021/08/29 11:13:46;;;;;;;0.60;0.50;;;;;;;20.27;51.63;97815.69;8428354;28;20214;-67
2021/08/29 11:18:01;;;;;;;1.33;0.90;;;;;;;20.51;52.17;97807.47;8415821;28;20201;-67
2021/08/29 11:22:25;;;;;;;0.70;0.60;;;;;;;20.28;53.14;97806.84;8426779;28;20197;-67
2021/08/29 11:26:28;;;;;;;0.97;0.80;;;;;;;20.38;53.06;97804.25;8435136;28;20190;-66
2021/08/29 11:30:45;;;;;;;2.20;0.50;;;;;;;20.26;53.09;97808.78;8431756;28;20218;-68
2021/08/29 11:35:08;;;;;;;3.27;0.67;;;;;;;19.88;54.08;97811.09;8424398;28;20216;-67
2021/08/29 11:39:30;;;;;;;0.63;0.50;;;;;;;20.03;54.45;97801.06;8415736;28;20203;-69
2021/08/29 11:43:35;;;;;;;1.40;0.70;;;;;;;19.96;54.88;97807.00;8422222;28;20192;-70
2021/08/29 11:47:40;;;;;;;1.73;0.80;;;;;;;20.00;54.53;97803.13;8433669;28;20234;-70
2021/08/29 11:51:44;;;;;;;0.63;0.40;;;;;;;20.01;55.26;97800.38;8428735;28;20221;-70
2021/08/29 11:55:47;;;;;;;1.30;0.63;;;;;;;19.77;55.83;97794.56;8431411;28;20191;-70
2021/08/29 11:59:50;;;;;;;2.07;1.03;;;;;;;19.61;56.39;97797.63;8431187;28;20510;-70
2021/08/29 12:03:55;;;;;;;1.50;0.63;;;;;;;19.63;56.26;97796.53;8431243;28;20231;-70
2021/08/29 12:08:02;;;;;;;1.47;0.63;;;;;;;19.65;56.05;97796.41;8428915;28;20223;-70
2021/08/29 12:12:06;;;;;;;1.27;0.60;;;;;;;19.67;56.32;97805.00;8429722;28;20202;-70
2021/08/29 12:16:10;;;;;;;1.57;0.70;;;;;;;19.56;55.76;97800.66;8420659;28;20368;-70
2021/08/29 12:20:13;;;;;;;2.87;0.70;;;;;;;19.79;55.75;97795.28;8420546;28;20262;-70
2021/08/29 12:24:26;;;;;;;0.80;0.40;;;;;;;19.79;55.37;97801.34;8420242;28;20498;-70
2021/08/29 12:28:30;;;;;;;0.57;0.47;;;;;;;19.72;55.04;97792.31;8420256;28;20227;-70
2021/08/29 12:32:35;;;;;;;0.83;0.57;;;;;;;19.78;55.19;97798.84;8419963;28;20195;-70
2021/08/29 12:36:38;;;;;;;1.03;0.50;;;;;;;19.70;55.51;97797.69;8417451;28;20239;-70
2021/08/29 12:40:42;;;;;;;1.30;0.67;;;;;;;19.28;58.85;97796.84;8419636;28;20215;-70
2021/08/29 12:44:45;;;;;;;3.53;0.60;;;;;;;19.20;59.94;97807.97;8416874;28;20212;-70
2021/08/29 12:48:49;;;;;;;0.93;0.50;;;;;;;18.91;61.20;97807.75;8419385;28;20223;-70
2021/08/29 12:52:54;;;;;;;1.37;0.70;;;;;;;18.82;62.48;97811.09;8418875;28;20195;-70
2021/08/29 12:56:58;;;;;;;2.37;0.90;;;;;;;18.76;62.03;97804.53;8416648;28;20218;-71
2021/08/29 13:01:03;;;;;;;1.53;1.00;;;;;;;18.72;61.79;97795.25;8419355;28;20199;-70
2021/08/29 13:05:07;;;;;;;1.40;1.00;;;;;;;18.71;61.99;97796.19;8419312;28;20223;-70
2021/08/29 13:09:09;;;;;;;0.83;0.50;;;;;;;18.83;61.91;97784.75;8419405;28;20223;-69
2021/08/29 13:13:14;;;;;;;0.93;0.50;;;;;;;19.03;61.47;97787.53;8419835;28;20206;-69
2021/08/29 13:17:19;;;;;;;1.07;0.50;;;;;;;19.07;61.75;97787.16;8419653;28;20199;-69
2021/08/29 13:21:24;;;;;;;1.33;0.40;;;;;;;19.04;62.60;97781.31;8418017;28;20506;-59
2021/08/29 13:25:28;;;;;;;0.40;0.40;;;;;;;19.03;62.51;97783.13;8419323;28;20206;-59
2021/08/29 13:29:40;;;;;;;0.47;0.47;;;;;;;18.97;62.70;97780.19;8424341;28;20221;-59
2021/08/29 13:33:43;;;;;;;1.27;0.40;;;;;;;18.97;62.37;97778.38;8435064;28;20201;-60
2021/08/29 13:37:47;;;;;;;0.87;0.60;;;;;;;18.89;62.89;97765.88;8429914;28;20215;-60
2021/08/29 13:42:21;;;;;;;0.67;0.40;;;;;;;19.02;62.87;97760.47;8431337;28;20271;-61
2021/08/29 13:46:29;;;;;;;0.70;0.60;;;;;;;19.33;61.88;97756.13;8428485;28;20435;-59
2021/08/29 13:50:35;;;;;;;0.97;0.70;;;;;;;19.29;62.70;97746.84;8418176;28;20235;-59
2021/08/29 13:54:38;;;;;;;0.70;0.70;;;;;;;19.62;61.63;97749.38;8423842;28;20305;-59
2021/08/29 13:58:41;;;;;;;1.53;0.60;;;;;;;19.67;61.15;97753.28;8424751;28;20199;-58
2021/08/29 14:02:47;;;;;;;0.87;0.70;;;;;;;19.69;61.00;97751.38;8417979;28;20425;-60
2021/08/29 14:06:52;;;;;;;0.83;0.60;;;;;;;19.49;61.86;97753.03;8418029;28;20199;-58
2021/08/29 14:11:13;;;;;;;0.60;0.60;;;;;;;19.28;61.60;97750.41;8417909;28;20390;-59
2021/08/29 14:15:17;;;;;;;1.97;0.70;;;;;;;19.14;62.75;97740.25;8417641;28;20217;-59
2021/08/29 14:19:24;;;;;;;0.90;0.50;;;;;;;18.99;62.81;97747.59;8417601;28;20203;-59
2021/08/29 14:23:26;;;;;;;2.13;0.83;;;;;;;18.91;64.48;97748.22;8417550;28;20200;-59
2021/08/29 14:27:29;;;;;;;1.60;0.87;;;;;;;18.87;64.66;97738.94;8417293;28;20498;-59
2021/08/29 14:31:35;;;;;;;0.60;0.50;;;;;;;19.04;63.55;97744.56;8417151;28;20234;-59
2021/08/29 14:35:45;;;;;;;2.27;0.50;;;;;;;19.10;63.37;97744.09;8417224;28;20381;-59
2021/08/29 14:39:48;;;;;;;1.30;0.80;;;;;;;18.91;63.54;97737.72;8417287;28;20203;-59
2021/08/29 14:43:51;;;;;;;1.53;0.93;;;;;;;19.08;64.07;97736.34;8416721;28;20522;-59
2021/08/29 14:47:54;;;;;;;0.93;0.80;;;;;;;19.10;64.14;97744.09;8416690;28;20203;-60
2021/08/29 14:51:58;;;;;;;0.70;0.70;;;;;;;19.16;64.65;97742.75;8415837;28;20223;-59
2021/08/29 14:56:01;;;;;;;1.10;0.50;;;;;;;19.20;65.20;97739.72;8415564;28;20191;-59
2021/08/29 15:00:07;;;;;;;0.77;0.60;;;;;;;19.33;64.89;97743.00;8413037;28;20196;-60
2021/08/29 15:04:10;;;;;;;0.73;0.73;;;;;;;19.19;63.75;97735.47;8415496;28;20227;-59
2021/08/29 15:08:17;;;;;;;0.73;0.70;;;;;;;19.31;64.01;97739.66;8415493;28;20200;-59
2021/08/29 15:12:20;;;;;;;0.50;0.50;;;;;;;19.18;62.65;97739.03;8415319;28;20321;-59
2021/08/29 15:16:22;;;;;;;0.50;0.50;;;;;;;19.31;62.73;97737.03;8415331;28;20196;-59
2021/08/29 15:20:29;;;;;;;0.73;0.50;;;;;;;19.20;62.47;97739.72;8412868;28;20202;-59
2021/08/29 15:24:35;;;;;;;0.43;0.40;;;;;;;19.03;62.22;97732.44;8415137;28;20191;-59
2021/08/29 15:28:38;;;;;;;0.57;0.47;;;;;;;18.93;61.70;97727.13;8414957;28;20228;-59
2021/08/29 15:32:41;;;;;;;0.90;0.77;;;;;;;18.90;63.08;97730.81;8415029;28;20257;-59
2021/08/29 15:36:43;;;;;;;0.30;0.30;;;;;;;18.91;63.17;97724.59;8415084;28;20514;-59
2021/08/29 15:40:49;;;;;;;1.80;0.50;;;;;;;19.03;64.02;97727.19;8412312;28;20214;-59
2021/08/29 15:44:52;;;;;;;0.50;0.50;;;;;;;18.89;63.57;97723.09;8415850;28;20403;-59
2021/08/29 15:48:55;;;;;;;0.90;0.70;;;;;;;18.91;64.71;97726.41;8421321;28;20211;-59
2021/08/29 15:52:58;;;;;;;0.50;0.50;;;;;;;18.92;64.24;97721.03;8421462;28;20198;-59
2021/08/29 15:57:03;;;;;;;0.90;0.70;;;;;;;18.94;64.89;97723.50;8421063;28;20376;-59
2021/08/29 16:01:06;;;;;;;0.80;0.60;;;;;;;18.88;65.01;97710.91;8418483;28;20202;-60
2021/08/29 16:05:11;;;;;;;0.70;0.40;;;;;;;18.94;65.16;97711.25;8420980;28;20611;-59
2021/08/29 16:09:13;;;;;;;0.73;0.50;;;;;;;18.85;64.72;97709.38;8420803;28;20218;-59
2021/08/29 16:13:17;;;;;;;15.60;1.60;;;;;;;18.86;65.57;97713.66;8421375;28;20379;-58
2021/08/29 16:17:20;;;;;;;1.37;0.50;;;;;;;18.84;64.78;97704.25;8424043;28;20649;-59
2021/08/29 16:21:23;;;;;;;0.90;0.80;;;;;;;18.87;65.58;97704.00;8419212;28;20207;-60
2021/08/29 16:25:26;;;;;;;1.07;0.70;;;;;;;18.87;65.16;97701.41;8421108;28;20192;-59
2021/08/29 16:29:31;;;;;;;16.57;0.90;;;;;;;18.77;65.39;97703.88;8424074;28;20218;-62
2021/08/29 16:33:33;;;;;;;0.53;0.50;;;;;;;18.71;65.38;97701.75;8440572;28;20190;-62
2021/08/29 16:37:36;;;;;;;2.57;0.50;;;;;;;18.56;65.61;97711.72;8431591;28;20237;-61
2021/08/29 16:41:39;;;;;;;1.63;0.63;;;;;;;18.65;66.29;97707.53;8419319;28;20204;-61
2021/08/29 16:45:45;;;;;;;2.50;0.70;;;;;;;18.62;66.26;97710.38;8419205;28;20206;-61
2021/08/29 16:49:47;;;;;;;0.90;0.50;;;;;;;18.49;67.34;97707.94;8446517;28;20226;-61
2021/08/29 16:53:51;;;;;;;2.77;0.70;;;;;;;18.53;66.97;97704.09;8424351;28;20195;-61
2021/08/29 16:57:54;;;;;;;10.07;0.90;;;;;;;18.42;68.34;97712.84;8418950;28;20198;-61
2021/08/29 17:01:58;;;;;;;2.87;1.40;;;;;;;18.34;68.34;97707.38;8418590;28;20206;-61
2021/08/29 17:06:01;;;;;;;1.67;1.20;;;;;;;18.46;67.80;97708.19;8418582;28;20206;-61
2021/08/29 17:10:05;;;;;;;1.53;0.60;;;;;;;18.31;68.24;97705.81;8418527;28;20215;-61
2021/08/29 17:14:08;;;;;;;1.63;1.00;;;;;;;18.21;69.56;97710.13;8418710;28;20191;-62
2021/08/29 17:18:12;;;;;;;1.10;0.70;;;;;;;18.34;68.66;97708.22;8418344;28;20443;-62
2021/08/29 17:22:15;;;;;;;1.37;0.53;;;;;;;18.42;68.80;97709.38;8416339;28;20195;-62
2021/08/29 17:26:19;;;;;;;4.13;0.57;;;;;;;18.38;68.75;97694.88;8415547;28;20202;-62
2021/08/29 17:30:22;;;;;;;1.40;0.60;;;;;;;18.38;68.52;97702.72;8418414;28;20530;-62
2021/08/29 17:34:26;;;;;;;0.87;0.80;;;;;;;18.31;68.01;97702.38;8415575;28;20404;-63
2021/08/29 17:38:29;;;;;;;1.73;1.03;;;;;;;18.30;67.82;97698.09;8418260;28;20202;-62
2021/08/29 17:42:32;;;;;;;2.13;1.30;;;;;;;18.26;68.15;97696.66;8417923;28;20205;-62
2021/08/29 17:46:39;;;;;;;1.67;0.87;;;;;;;18.26;68.04;97705.38;8418308;28;20476;-62
2021/08/29 17:50:44;;;;;;;6.23;0.90;;;;;;;18.24;68.36;97707.28;8418156;28;20226;-62
2021/08/29 17:54:47;;;;;;;1.40;1.30;;;;;;;18.27;67.96;97712.25;8418330;28;20206;-62
2021/08/29 17:58:49;;;;;;;0.80;0.70;;;;;;;18.21;68.44;97709.31;8418214;28;20206;-62
2021/08/29 18:02:52;;;;;;;1.17;0.50;;;;;;;18.21;68.87;97710.13;8418027;28;20234;-62
2021/08/29 18:06:57;;;;;;;1.03;0.50;;;;;;;18.21;68.32;97714.56;8418233;28;20199;-62
2021/08/29 18:11:00;;;;;;;0.60;0.50;;;;;;;18.17;68.64;97712.16;8417380;28;20223;-62
2021/08/29 18:15:04;;;;;;;0.80;0.50;;;;;;;18.17;68.89;97706.09;8417587;28;20206;-62
2021/08/29 18:19:07;;;;;;;0.70;0.63;;;;;;;18.08;69.40;97717.31;8419654;28;20389;-62
2021/08/29 18:23:11;;;;;;;12.03;4.10;;;;;;;18.12;69.09;97713.50;8417767;28;20203;-62
2021/08/29 18:27:14;;;;;;;6.20;2.30;;;;;;;18.11;69.24;97722.31;8417379;28;20451;-62
2021/08/29 18:31:17;;;;;;;1.87;1.10;;;;;;;18.13;69.15;97723.03;8417178;28;20231;-62
2021/08/29 18:35:20;;;;;;;1.93;0.70;;;;;;;18.06;69.43;97725.28;8417151;28;20207;-62
2021/08/29 18:39:24;;;;;;;1.40;0.60;;;;;;;18.07;69.31;97732.22;8417204;28;20398;-62
2021/08/29 18:43:27;;;;;;;2.37;0.77;;;;;;;18.10;69.31;97731.94;8416834;28;20203;-62
2021/08/29 18:47:29;;;;;;;0.70;0.60;;;;;;;18.01;69.54;97731.84;8416777;28;20206;-62
2021/08/29 18:51:32;;;;;;;1.17;0.70;;;;;;;17.94;70.02;97742.81;8416772;28;20235;-62
2021/08/29 18:55:36;;;;;;;0.83;0.77;;;;;;;18.03;69.94;97740.41;8416769;28;20387;-62
2021/08/29 18:59:39;;;;;;;3.73;0.83;;;;;;;17.96;69.70;97742.69;8416793;28;20902;-62
2021/08/29 19:03:42;;;;;;;1.40;0.90;;;;;;;17.99;70.25;97739.81;8416492;28;20235;-62
2021/08/29 19:07:45;;;;;;;2.50;0.90;;;;;;;17.91;69.99;97743.03;8415640;28;20202;-60